sensor_id;sensor_type;location;lat;lon;timestamp;P1;durP1;ratioP1;P2;durP2;ratioP2
13173;SDS011;6652;48.802;9.190;2024-03-23T00:53:37;15.07;;;8.07;;
13173;SDS011;6652;48.802;9.190;2024-03-23T00:56:03;19.30;;;8.43;;
13173;SDS011;6652;48.802;9.190;2024-03-23T00:58:30;14.90;;;8.18;;
13173;SDS011;6652;48.802;9.190;2024-03-23T01:00:56;15.82;;;8.70;;
13173;SDS011;6652;48.802;9.190;2024-03-23T01:03:23;20.75;;;8.55;;
13173;SDS011;6652;48.802;9.190;2024-03-23T01:05:49;14.10;;;8.15;;
13173;SDS011;6652;48.802;9.190;2024-03-23T01:08:16;19.92;;;8.15;;
13173;SDS011;6652;48.802;9.190;2024-03-23T01:10:43;19.33;;;8.32;;
13173;SDS011;6652;48.802;9.190;2024-03-23T01:13:20;13.50;;;7.78;;
13173;SDS011;6652;48.802;9.190;2024-03-23T01:15:48;19.25;;;7.93;;
13173;SDS011;6652;48.802;9.190;2024-03-23T01:18:15;16.80;;;8.82;;
13173;SDS011;6652;48.802;9.190;2024-03-23T01:20:41;16.70;;;8.38;;
13173;SDS011;6652;48.802;9.190;2024-03-23T01:23:08;15.50;;;8.27;;
13173;SDS011;6652;48.802;9.190;2024-03-23T01:25:34;17.10;;;8.15;;
13173;SDS011;6652;48.802;9.190;2024-03-23T01:28:02;13.80;;;7.55;;
13173;SDS011;6652;48.802;9.190;2024-03-23T01:30:29;19.15;;;7.10;;
13173;SDS011;6652;48.802;9.190;2024-03-23T01:32:56;18.95;;;7.18;;
13173;SDS011;6652;48.802;9.190;2024-03-23T01:35:22;11.27;;;6.70;;
13173;SDS011;6652;48.802;9.190;2024-03-23T01:37:49;16.20;;;6.43;;
13173;SDS011;6652;48.802;9.190;2024-03-23T01:40:16;13.20;;;5.63;;
13173;SDS011;6652;48.802;9.190;2024-03-23T01:42:43;11.52;;;4.05;;
13173;SDS011;6652;48.802;9.190;2024-03-23T01:45:22;16.00;;;4.53;;
13173;SDS011;6652;48.802;9.190;2024-03-23T01:47:50;9.73;;;4.10;;
13173;SDS011;6652;48.802;9.190;2024-03-23T01:50:16;7.28;;;3.58;;
13173;SDS011;6652;48.802;9.190;2024-03-23T01:52:43;8.25;;;3.50;;
13173;SDS011;6652;48.802;9.190;2024-03-23T01:55:10;5.00;;;2.90;;
13173;SDS011;6652;48.802;9.190;2024-03-23T01:57:37;6.78;;;2.92;;
13173;SDS011;6652;48.802;9.190;2024-03-23T02:00:03;9.50;;;3.25;;
13173;SDS011;6652;48.802;9.190;2024-03-23T02:02:32;5.68;;;3.25;;
13173;SDS011;6652;48.802;9.190;2024-03-23T02:04:58;7.00;;;2.67;;
13173;SDS011;6652;48.802;9.190;2024-03-23T02:07:25;7.05;;;3.00;;
13173;SDS011;6652;48.802;9.190;2024-03-23T02:09:51;9.15;;;2.67;;
13173;SDS011;6652;48.802;9.190;2024-03-23T02:12:19;7.97;;;3.00;;
13173;SDS011;6652;48.802;9.190;2024-03-23T02:14:46;5.55;;;2.40;;
13173;SDS011;6652;48.802;9.190;2024-03-23T02:17:13;6.43;;;2.35;;
13173;SDS011;6652;48.802;9.190;2024-03-23T02:19:40;4.90;;;2.40;;
13173;SDS011;6652;48.802;9.190;2024-03-23T02:22:07;5.78;;;2.30;;
13173;SDS011;6652;48.802;9.190;2024-03-23T02:24:36;13.70;;;2.58;;
13173;SDS011;6652;48.802;9.190;2024-03-23T02:27:03;6.75;;;2.80;;
13173;SDS011;6652;48.802;9.190;2024-03-23T02:29:29;7.13;;;2.22;;
13173;SDS011;6652;48.802;9.190;2024-03-23T02:31:56;4.18;;;2.40;;
13173;SDS011;6652;48.802;9.190;2024-03-23T02:34:23;4.45;;;2.10;;
13173;SDS011;6652;48.802;9.190;2024-03-23T02:36:50;7.45;;;2.78;;
13173;SDS011;6652;48.802;9.190;2024-03-23T02:39:16;8.55;;;2.45;;
13173;SDS011;6652;48.802;9.190;2024-03-23T02:41:44;6.97;;;2.33;;
13173;SDS011;6652;48.802;9.190;2024-03-23T02:44:10;7.43;;;2.60;;
13173;SDS011;6652;48.802;9.190;2024-03-23T02:46:37;3.53;;;2.33;;
13173;SDS011;6652;48.802;9.190;2024-03-23T02:49:03;7.57;;;2.20;;
13173;SDS011;6652;48.802;9.190;2024-03-23T02:51:30;4.70;;;2.33;;
13173;SDS011;6652;48.802;9.190;2024-03-23T02:53:56;4.03;;;2.28;;
13173;SDS011;6652;48.802;9.190;2024-03-23T02:56:23;5.13;;;2.25;;
13173;SDS011;6652;48.802;9.190;2024-03-23T02:58:50;5.80;;;2.47;;
13173;SDS011;6652;48.802;9.190;2024-03-23T03:01:17;7.85;;;2.45;;
13173;SDS011;6652;48.802;9.190;2024-03-23T03:03:43;4.45;;;2.15;;
13173;SDS011;6652;48.802;9.190;2024-03-23T03:06:10;4.95;;;2.42;;
13173;SDS011;6652;48.802;9.190;2024-03-23T03:08:36;3.10;;;2.03;;
13173;SDS011;6652;48.802;9.190;2024-03-23T03:11:03;4.38;;;2.50;;
13173;SDS011;6652;48.802;9.190;2024-03-23T03:13:29;8.20;;;2.58;;
13173;SDS011;6652;48.802;9.190;2024-03-23T03:15:57;3.33;;;2.08;;
13173;SDS011;6652;48.802;9.190;2024-03-23T03:18:23;3.75;;;2.28;;
13173;SDS011;6652;48.802;9.190;2024-03-23T03:20:53;8.05;;;2.40;;
13173;SDS011;6652;48.802;9.190;2024-03-23T03:23:20;4.63;;;2.25;;
13173;SDS011;6652;48.802;9.190;2024-03-23T03:25:47;6.47;;;2.25;;
13173;SDS011;6652;48.802;9.190;2024-03-23T03:28:13;3.40;;;2.08;;
13173;SDS011;6652;48.802;9.190;2024-03-23T03:30:40;2.92;;;2.03;;
13173;SDS011;6652;48.802;9.190;2024-03-23T03:33:08;4.75;;;2.05;;
13173;SDS011;6652;48.802;9.190;2024-03-23T03:35:34;3.38;;;2.28;;
13173;SDS011;6652;48.802;9.190;2024-03-23T03:38:00;4.05;;;2.28;;
13173;SDS011;6652;48.802;9.190;2024-03-23T03:40:28;4.70;;;2.10;;
13173;SDS011;6652;48.802;9.190;2024-03-23T03:42:54;3.33;;;2.35;;
13173;SDS011;6652;48.802;9.190;2024-03-23T03:45:21;4.07;;;2.30;;
13173;SDS011;6652;48.802;9.190;2024-03-23T03:47:46;5.78;;;2.40;;
13173;SDS011;6652;48.802;9.190;2024-03-23T03:50:15;4.57;;;2.00;;
13173;SDS011;6652;48.802;9.190;2024-03-23T03:52:41;4.07;;;2.22;;
13173;SDS011;6652;48.802;9.190;2024-03-23T03:55:12;5.43;;;2.60;;
13173;SDS011;6652;48.802;9.190;2024-03-23T03:57:38;6.00;;;2.30;;
13173;SDS011;6652;48.802;9.190;2024-03-23T04:00:06;7.00;;;2.22;;
13173;SDS011;6652;48.802;9.190;2024-03-23T04:02:36;5.65;;;2.97;;
13173;SDS011;6652;48.802;9.190;2024-03-23T04:05:03;6.07;;;2.45;;
13173;SDS011;6652;48.802;9.190;2024-03-23T04:07:30;5.78;;;2.65;;
13173;SDS011;6652;48.802;9.190;2024-03-23T04:09:58;5.85;;;2.40;;
13173;SDS011;6652;48.802;9.190;2024-03-23T04:12:25;5.55;;;2.60;;
13173;SDS011;6652;48.802;9.190;2024-03-23T04:14:52;7.07;;;2.45;;
13173;SDS011;6652;48.802;9.190;2024-03-23T04:17:18;7.18;;;2.33;;
13173;SDS011;6652;48.802;9.190;2024-03-23T04:19:45;8.02;;;3.17;;
13173;SDS011;6652;48.802;9.190;2024-03-23T04:22:12;6.50;;;2.50;;
13173;SDS011;6652;48.802;9.190;2024-03-23T04:24:40;8.05;;;2.70;;
13173;SDS011;6652;48.802;9.190;2024-03-23T04:27:07;4.38;;;2.10;;
13173;SDS011;6652;48.802;9.190;2024-03-23T04:29:34;7.25;;;2.33;;
13173;SDS011;6652;48.802;9.190;2024-03-23T04:31:59;7.88;;;2.30;;
13173;SDS011;6652;48.802;9.190;2024-03-23T04:34:27;6.78;;;2.10;;
13173;SDS011;6652;48.802;9.190;2024-03-23T04:36:52;6.85;;;2.80;;
13173;SDS011;6652;48.802;9.190;2024-03-23T04:39:19;9.35;;;3.70;;
13173;SDS011;6652;48.802;9.190;2024-03-23T04:41:48;10.55;;;3.50;;
13173;SDS011;6652;48.802;9.190;2024-03-23T04:44:15;7.50;;;3.95;;
13173;SDS011;6652;48.802;9.190;2024-03-23T04:46:41;8.02;;;4.55;;
13173;SDS011;6652;48.802;9.190;2024-03-23T04:49:08;13.63;;;5.03;;
13173;SDS011;6652;48.802;9.190;2024-03-23T04:51:35;10.55;;;4.78;;
13173;SDS011;6652;48.802;9.190;2024-03-23T04:54:03;13.80;;;5.15;;
13173;SDS011;6652;48.802;9.190;2024-03-23T04:56:31;9.05;;;5.63;;
13173;SDS011;6652;48.802;9.190;2024-03-23T04:58:59;10.25;;;6.50;;
13173;SDS011;6652;48.802;9.190;2024-03-23T05:01:26;13.48;;;7.10;;
13173;SDS011;6652;48.802;9.190;2024-03-23T05:03:53;12.43;;;7.63;;
13173;SDS011;6652;48.802;9.190;2024-03-23T05:06:19;13.43;;;8.40;;
13173;SDS011;6652;48.802;9.190;2024-03-23T05:08:46;16.50;;;9.45;;
13173;SDS011;6652;48.802;9.190;2024-03-23T05:11:12;18.52;;;10.73;;
13173;SDS011;6652;48.802;9.190;2024-03-23T05:13:39;19.95;;;11.35;;
13173;SDS011;6652;48.802;9.190;2024-03-23T05:16:06;19.35;;;12.20;;
13173;SDS011;6652;48.802;9.190;2024-03-23T05:18:33;23.35;;;12.60;;
13173;SDS011;6652;48.802;9.190;2024-03-23T05:20:59;22.20;;;12.25;;
13173;SDS011;6652;48.802;9.190;2024-03-23T05:23:27;21.45;;;13.57;;
13173;SDS011;6652;48.802;9.190;2024-03-23T05:25:54;22.20;;;13.57;;
13173;SDS011;6652;48.802;9.190;2024-03-23T05:28:21;23.42;;;13.20;;
13173;SDS011;6652;48.802;9.190;2024-03-23T05:30:49;24.23;;;14.75;;
13173;SDS011;6652;48.802;9.190;2024-03-23T05:33:19;20.98;;;14.35;;
13173;SDS011;6652;48.802;9.190;2024-03-23T05:35:45;23.42;;;14.07;;
13173;SDS011;6652;48.802;9.190;2024-03-23T05:38:13;21.55;;;14.60;;
13173;SDS011;6652;48.802;9.190;2024-03-23T05:40:39;27.90;;;16.55;;
13173;SDS011;6652;48.802;9.190;2024-03-23T05:43:05;22.83;;;14.98;;
13173;SDS011;6652;48.802;9.190;2024-03-23T05:45:31;27.15;;;15.27;;
13173;SDS011;6652;48.802;9.190;2024-03-23T05:47:58;22.83;;;14.95;;
13173;SDS011;6652;48.802;9.190;2024-03-23T05:50:25;21.13;;;13.30;;
13173;SDS011;6652;48.802;9.190;2024-03-23T05:52:52;19.55;;;12.05;;
13173;SDS011;6652;48.802;9.190;2024-03-23T05:55:18;23.23;;;12.70;;
13173;SDS011;6652;48.802;9.190;2024-03-23T05:57:45;15.55;;;10.50;;
13173;SDS011;6652;48.802;9.190;2024-03-23T06:00:11;14.93;;;8.20;;
13173;SDS011;6652;48.802;9.190;2024-03-23T06:02:42;9.50;;;6.22;;
13173;SDS011;6652;48.802;9.190;2024-03-23T06:05:09;9.10;;;6.10;;
13173;SDS011;6652;48.802;9.190;2024-03-23T06:07:38;9.23;;;4.03;;
13173;SDS011;6652;48.802;9.190;2024-03-23T06:10:05;5.32;;;3.58;;
13173;SDS011;6652;48.802;9.190;2024-03-23T06:12:31;5.10;;;3.75;;
13173;SDS011;6652;48.802;9.190;2024-03-23T06:14:58;5.40;;;3.40;;
13173;SDS011;6652;48.802;9.190;2024-03-23T06:17:24;4.78;;;3.38;;
13173;SDS011;6652;48.802;9.190;2024-03-23T06:19:51;4.20;;;3.15;;
13173;SDS011;6652;48.802;9.190;2024-03-23T06:22:17;3.47;;;2.70;;
13173;SDS011;6652;48.802;9.190;2024-03-23T06:24:45;3.47;;;2.38;;
13173;SDS011;6652;48.802;9.190;2024-03-23T06:27:11;4.32;;;2.60;;
13173;SDS011;6652;48.802;9.190;2024-03-23T06:29:38;5.47;;;2.38;;
13173;SDS011;6652;48.802;9.190;2024-03-23T06:32:04;4.05;;;2.55;;
13173;SDS011;6652;48.802;9.190;2024-03-23T06:34:31;7.35;;;2.53;;
13173;SDS011;6652;48.802;9.190;2024-03-23T06:36:56;4.75;;;2.53;;
13173;SDS011;6652;48.802;9.190;2024-03-23T06:39:23;4.72;;;2.10;;
13173;SDS011;6652;48.802;9.190;2024-03-23T06:41:52;3.03;;;1.85;;
13173;SDS011;6652;48.802;9.190;2024-03-23T06:44:20;2.25;;;1.95;;
13173;SDS011;6652;48.802;9.190;2024-03-23T06:46:46;2.03;;;1.67;;
13173;SDS011;6652;48.802;9.190;2024-03-23T06:49:14;2.25;;;1.42;;
13173;SDS011;6652;48.802;9.190;2024-03-23T06:51:40;1.75;;;1.25;;
13173;SDS011;6652;48.802;9.190;2024-03-23T06:54:07;1.23;;;0.98;;
13173;SDS011;6652;48.802;9.190;2024-03-23T06:56:33;2.30;;;0.80;;
13173;SDS011;6652;48.802;9.190;2024-03-23T06:59:01;1.58;;;1.10;;
13173;SDS011;6652;48.802;9.190;2024-03-23T07:01:27;1.00;;;0.90;;
13173;SDS011;6652;48.802;9.190;2024-03-23T07:03:54;1.08;;;0.80;;
13173;SDS011;6652;48.802;9.190;2024-03-23T07:06:20;0.88;;;0.77;;
13173;SDS011;6652;48.802;9.190;2024-03-23T07:08:47;0.80;;;0.47;;
13173;SDS011;6652;48.802;9.190;2024-03-23T07:11:17;0.80;;;0.80;;
13173;SDS011;6652;48.802;9.190;2024-03-23T07:13:45;0.98;;;0.82;;
13173;SDS011;6652;48.802;9.190;2024-03-23T07:16:12;0.77;;;0.50;;
13173;SDS011;6652;48.802;9.190;2024-03-23T07:18:39;0.30;;;0.30;;
13173;SDS011;6652;48.802;9.190;2024-03-23T07:21:05;0.30;;;0.30;;
13173;SDS011;6652;48.802;9.190;2024-03-23T07:23:32;0.20;;;0.20;;
13173;SDS011;6652;48.802;9.190;2024-03-23T07:25:58;0.30;;;0.30;;
13173;SDS011;6652;48.802;9.190;2024-03-23T07:28:25;1.25;;;0.50;;
13173;SDS011;6652;48.802;9.190;2024-03-23T07:31:02;2.58;;;1.25;;
13173;SDS011;6652;48.802;9.190;2024-03-23T07:33:31;3.13;;;0.55;;
13173;SDS011;6652;48.802;9.190;2024-03-23T07:35:57;1.05;;;0.50;;
13173;SDS011;6652;48.802;9.190;2024-03-23T07:38:26;3.58;;;0.60;;
13173;SDS011;6652;48.802;9.190;2024-03-23T07:40:57;2.63;;;0.40;;
13173;SDS011;6652;48.802;9.190;2024-03-23T07:43:29;1.38;;;0.60;;
13173;SDS011;6652;48.802;9.190;2024-03-23T07:45:54;0.93;;;0.68;;
13173;SDS011;6652;48.802;9.190;2024-03-23T07:48:21;0.50;;;0.40;;
13173;SDS011;6652;48.802;9.190;2024-03-23T07:50:56;0.45;;;0.30;;
13173;SDS011;6652;48.802;9.190;2024-03-23T07:53:24;1.88;;;0.32;;
13173;SDS011;6652;48.802;9.190;2024-03-23T07:55:57;1.65;;;0.70;;
13173;SDS011;6652;48.802;9.190;2024-03-23T07:58:25;1.75;;;0.70;;
13173;SDS011;6652;48.802;9.190;2024-03-23T08:00:51;0.57;;;0.50;;
13173;SDS011;6652;48.802;9.190;2024-03-23T08:03:18;0.47;;;0.40;;
13173;SDS011;6652;48.802;9.190;2024-03-23T08:05:44;1.55;;;0.50;;
13173;SDS011;6652;48.802;9.190;2024-03-23T08:08:13;1.60;;;0.57;;
13173;SDS011;6652;48.802;9.190;2024-03-23T08:10:46;0.70;;;0.68;;
13173;SDS011;6652;48.802;9.190;2024-03-23T08:13:14;4.55;;;0.73;;
13173;SDS011;6652;48.802;9.190;2024-03-23T08:15:40;6.50;;;0.50;;
13173;SDS011;6652;48.802;9.190;2024-03-23T08:18:06;4.55;;;0.60;;
13173;SDS011;6652;48.802;9.190;2024-03-23T08:20:32;1.33;;;0.60;;
13173;SDS011;6652;48.802;9.190;2024-03-23T08:22:59;5.80;;;0.68;;
13173;SDS011;6652;48.802;9.190;2024-03-23T08:25:26;0.30;;;0.30;;
13173;SDS011;6652;48.802;9.190;2024-03-23T08:27:53;0.95;;;0.70;;
13173;SDS011;6652;48.802;9.190;2024-03-23T08:30:19;0.73;;;0.68;;
13173;SDS011;6652;48.802;9.190;2024-03-23T08:32:46;0.77;;;0.40;;
13173;SDS011;6652;48.802;9.190;2024-03-23T08:35:12;4.50;;;1.38;;
13173;SDS011;6652;48.802;9.190;2024-03-23T08:37:39;4.05;;;0.60;;
13173;SDS011;6652;48.802;9.190;2024-03-23T08:40:05;1.55;;;0.50;;
13173;SDS011;6652;48.802;9.190;2024-03-23T08:42:34;4.80;;;1.17;;
13173;SDS011;6652;48.802;9.190;2024-03-23T08:45:00;2.58;;;0.68;;
13173;SDS011;6652;48.802;9.190;2024-03-23T08:47:27;0.85;;;0.47;;
13173;SDS011;6652;48.802;9.190;2024-03-23T08:49:53;1.10;;;0.60;;
13173;SDS011;6652;48.802;9.190;2024-03-23T08:52:20;2.72;;;0.77;;
13173;SDS011;6652;48.802;9.190;2024-03-23T08:54:48;5.07;;;1.30;;
13173;SDS011;6652;48.802;9.190;2024-03-23T08:57:15;7.82;;;2.25;;
13173;SDS011;6652;48.802;9.190;2024-03-23T08:59:42;11.07;;;2.28;;
13173;SDS011;6652;48.802;9.190;2024-03-23T09:02:08;7.88;;;2.20;;
13173;SDS011;6652;48.802;9.190;2024-03-23T09:04:34;10.98;;;2.45;;
13173;SDS011;6652;48.802;9.190;2024-03-23T09:07:01;6.80;;;2.17;;
13173;SDS011;6652;48.802;9.190;2024-03-23T09:09:27;10.05;;;1.85;;
13173;SDS011;6652;48.802;9.190;2024-03-23T09:11:54;9.93;;;2.72;;
13173;SDS011;6652;48.802;9.190;2024-03-23T09:14:21;8.70;;;2.17;;
13173;SDS011;6652;48.802;9.190;2024-03-23T09:16:50;10.55;;;2.17;;
13173;SDS011;6652;48.802;9.190;2024-03-23T09:19:16;9.02;;;1.67;;
13173;SDS011;6652;48.802;9.190;2024-03-23T09:21:43;4.35;;;1.80;;
13173;SDS011;6652;48.802;9.190;2024-03-23T09:24:09;6.65;;;2.22;;
13173;SDS011;6652;48.802;9.190;2024-03-23T09:26:36;5.47;;;2.20;;
13173;SDS011;6652;48.802;9.190;2024-03-23T09:29:02;7.15;;;2.72;;
13173;SDS011;6652;48.802;9.190;2024-03-23T09:31:29;13.35;;;2.50;;
13173;SDS011;6652;48.802;9.190;2024-03-23T09:33:57;6.95;;;2.33;;
13173;SDS011;6652;48.802;9.190;2024-03-23T09:36:24;10.77;;;2.30;;
13173;SDS011;6652;48.802;9.190;2024-03-23T09:38:50;9.38;;;2.90;;
13173;SDS011;6652;48.802;9.190;2024-03-23T09:41:17;12.35;;;3.00;;
13173;SDS011;6652;48.802;9.190;2024-03-23T09:43:43;6.97;;;2.30;;
13173;SDS011;6652;48.802;9.190;2024-03-23T09:46:13;10.18;;;2.50;;
13173;SDS011;6652;48.802;9.190;2024-03-23T09:48:39;6.25;;;2.10;;
13173;SDS011;6652;48.802;9.190;2024-03-23T09:51:07;13.50;;;2.58;;
13173;SDS011;6652;48.802;9.190;2024-03-23T09:53:34;9.38;;;2.50;;
13173;SDS011;6652;48.802;9.190;2024-03-23T09:56:01;7.35;;;2.72;;
13173;SDS011;6652;48.802;9.190;2024-03-23T09:58:27;8.02;;;2.45;;
13173;SDS011;6652;48.802;9.190;2024-03-23T10:00:54;8.23;;;2.28;;
13173;SDS011;6652;48.802;9.190;2024-03-23T10:03:20;5.10;;;2.20;;
13173;SDS011;6652;48.802;9.190;2024-03-23T10:05:47;9.65;;;2.60;;
13173;SDS011;6652;48.802;9.190;2024-03-23T10:08:27;9.27;;;2.50;;
13173;SDS011;6652;48.802;9.190;2024-03-23T10:10:55;9.52;;;2.90;;
13173;SDS011;6652;48.802;9.190;2024-03-23T10:13:24;11.80;;;3.78;;
13173;SDS011;6652;48.802;9.190;2024-03-23T10:15:55;11.63;;;2.88;;
13173;SDS011;6652;48.802;9.190;2024-03-23T10:18:23;7.47;;;2.78;;
13173;SDS011;6652;48.802;9.190;2024-03-23T10:20:51;7.10;;;2.58;;
13173;SDS011;6652;48.802;9.190;2024-03-23T10:23:32;9.48;;;3.00;;
13173;SDS011;6652;48.802;9.190;2024-03-23T10:26:06;12.48;;;3.15;;
13173;SDS011;6652;48.802;9.190;2024-03-23T10:28:43;9.60;;;2.88;;
13173;SDS011;6652;48.802;9.190;2024-03-23T10:33:47;10.27;;;3.33;;
13173;SDS011;6652;48.802;9.190;2024-03-23T10:36:15;9.02;;;2.85;;
13173;SDS011;6652;48.802;9.190;2024-03-23T10:38:44;9.30;;;3.17;;
13173;SDS011;6652;48.802;9.190;2024-03-23T10:41:11;9.98;;;3.05;;
13173;SDS011;6652;48.802;9.190;2024-03-23T10:43:36;14.05;;;2.95;;
13173;SDS011;6652;48.802;9.190;2024-03-23T10:46:04;5.20;;;2.38;;
13173;SDS011;6652;48.802;9.190;2024-03-23T10:48:31;10.30;;;2.40;;
13173;SDS011;6652;48.802;9.190;2024-03-23T10:50:58;14.40;;;2.90;;
13173;SDS011;6652;48.802;9.190;2024-03-23T10:53:25;6.70;;;2.80;;
13173;SDS011;6652;48.802;9.190;2024-03-23T10:55:56;11.52;;;2.97;;
13173;SDS011;6652;48.802;9.190;2024-03-23T10:58:23;8.68;;;3.13;;
13173;SDS011;6652;48.802;9.190;2024-03-23T11:00:53;9.50;;;2.67;;
13173;SDS011;6652;48.802;9.190;2024-03-23T11:03:29;11.43;;;3.10;;
13173;SDS011;6652;48.802;9.190;2024-03-23T11:05:57;13.38;;;3.92;;
13173;SDS011;6652;48.802;9.190;2024-03-23T11:08:32;6.57;;;3.10;;
13173;SDS011;6652;48.802;9.190;2024-03-23T11:11:15;6.13;;;2.40;;
13173;SDS011;6652;48.802;9.190;2024-03-23T11:13:43;4.88;;;2.25;;
13173;SDS011;6652;48.802;9.190;2024-03-23T11:16:13;4.55;;;2.10;;
13173;SDS011;6652;48.802;9.190;2024-03-23T11:18:40;9.00;;;2.50;;
13173;SDS011;6652;48.802;9.190;2024-03-23T11:21:07;4.35;;;1.98;;
13173;SDS011;6652;48.802;9.190;2024-03-23T11:23:33;4.95;;;2.15;;
13173;SDS011;6652;48.802;9.190;2024-03-23T11:26:00;5.13;;;1.95;;
13173;SDS011;6652;48.802;9.190;2024-03-23T11:28:27;3.65;;;1.60;;
13173;SDS011;6652;48.802;9.190;2024-03-23T11:30:54;3.63;;;1.65;;
13173;SDS011;6652;48.802;9.190;2024-03-23T11:33:20;5.32;;;1.98;;
13173;SDS011;6652;48.802;9.190;2024-03-23T11:35:47;4.78;;;1.75;;
13173;SDS011;6652;48.802;9.190;2024-03-23T11:38:13;4.75;;;1.95;;
13173;SDS011;6652;48.802;9.190;2024-03-23T11:40:45;6.70;;;2.13;;
13173;SDS011;6652;48.802;9.190;2024-03-23T11:43:12;3.50;;;1.75;;
13173;SDS011;6652;48.802;9.190;2024-03-23T11:45:42;6.25;;;1.70;;
13173;SDS011;6652;48.802;9.190;2024-03-23T11:48:10;4.80;;;1.58;;
13173;SDS011;6652;48.802;9.190;2024-03-23T11:50:38;4.53;;;1.92;;
13173;SDS011;6652;48.802;9.190;2024-03-23T11:53:11;7.20;;;1.90;;
13173;SDS011;6652;48.802;9.190;2024-03-23T11:55:43;6.55;;;1.70;;
13173;SDS011;6652;48.802;9.190;2024-03-23T11:58:13;7.38;;;2.30;;
13173;SDS011;6652;48.802;9.190;2024-03-23T12:00:42;9.98;;;1.90;;
13173;SDS011;6652;48.802;9.190;2024-03-23T12:03:15;4.15;;;1.80;;
13173;SDS011;6652;48.802;9.190;2024-03-23T12:05:46;5.30;;;1.83;;
13173;SDS011;6652;48.802;9.190;2024-03-23T12:08:20;13.30;;;2.30;;
13173;SDS011;6652;48.802;9.190;2024-03-23T12:10:49;4.85;;;1.80;;
13173;SDS011;6652;48.802;9.190;2024-03-23T12:13:17;9.18;;;2.80;;
13173;SDS011;6652;48.802;9.190;2024-03-23T12:15:47;9.82;;;1.83;;
13173;SDS011;6652;48.802;9.190;2024-03-23T12:18:14;7.85;;;1.60;;
13173;SDS011;6652;48.802;9.190;2024-03-23T12:20:42;5.50;;;1.63;;
13173;SDS011;6652;48.802;9.190;2024-03-23T12:23:08;6.20;;;1.40;;
13173;SDS011;6652;48.802;9.190;2024-03-23T12:25:36;9.27;;;1.92;;
13173;SDS011;6652;48.802;9.190;2024-03-23T12:28:03;8.27;;;1.98;;
13173;SDS011;6652;48.802;9.190;2024-03-23T12:30:31;10.27;;;2.55;;
13173;SDS011;6652;48.802;9.190;2024-03-23T12:33:00;8.45;;;2.30;;
13173;SDS011;6652;48.802;9.190;2024-03-23T12:35:28;9.63;;;2.17;;
13173;SDS011;6652;48.802;9.190;2024-03-23T12:37:54;9.15;;;1.77;;
13173;SDS011;6652;48.802;9.190;2024-03-23T12:40:21;8.35;;;1.92;;
13173;SDS011;6652;48.802;9.190;2024-03-23T12:42:47;13.77;;;2.63;;
13173;SDS011;6652;48.802;9.190;2024-03-23T12:45:14;9.93;;;2.30;;
13173;SDS011;6652;48.802;9.190;2024-03-23T12:47:40;11.95;;;2.25;;
13173;SDS011;6652;48.802;9.190;2024-03-23T12:50:09;9.90;;;2.20;;
13173;SDS011;6652;48.802;9.190;2024-03-23T12:52:35;10.32;;;2.05;;
13173;SDS011;6652;48.802;9.190;2024-03-23T12:55:02;13.20;;;2.10;;
13173;SDS011;6652;48.802;9.190;2024-03-23T12:57:30;14.07;;;2.55;;
13173;SDS011;6652;48.802;9.190;2024-03-23T12:59:57;9.18;;;2.75;;
13173;SDS011;6652;48.802;9.190;2024-03-23T13:02:23;13.65;;;2.72;;
13173;SDS011;6652;48.802;9.190;2024-03-23T13:04:50;10.25;;;2.00;;
13173;SDS011;6652;48.802;9.190;2024-03-23T13:07:18;7.63;;;2.00;;
13173;SDS011;6652;48.802;9.190;2024-03-23T13:09:46;10.35;;;2.63;;
13173;SDS011;6652;48.802;9.190;2024-03-23T13:12:15;14.85;;;2.10;;
13173;SDS011;6652;48.802;9.190;2024-03-23T13:14:43;16.08;;;2.97;;
13173;SDS011;6652;48.802;9.190;2024-03-23T13:17:09;5.38;;;1.90;;
13173;SDS011;6652;48.802;9.190;2024-03-23T13:19:36;12.40;;;2.00;;
13173;SDS011;6652;48.802;9.190;2024-03-23T13:22:02;11.60;;;2.20;;
13173;SDS011;6652;48.802;9.190;2024-03-23T13:24:31;7.15;;;1.63;;
13173;SDS011;6652;48.802;9.190;2024-03-23T13:26:57;15.10;;;2.10;;
13173;SDS011;6652;48.802;9.190;2024-03-23T13:29:24;13.85;;;2.67;;
13173;SDS011;6652;48.802;9.190;2024-03-23T13:31:51;8.93;;;2.30;;
13173;SDS011;6652;48.802;9.190;2024-03-23T13:34:18;11.77;;;2.92;;
13173;SDS011;6652;48.802;9.190;2024-03-23T13:36:45;9.70;;;2.35;;
13173;SDS011;6652;48.802;9.190;2024-03-23T13:39:13;10.93;;;2.65;;
13173;SDS011;6652;48.802;9.190;2024-03-23T13:41:43;14.20;;;2.47;;
13173;SDS011;6652;48.802;9.190;2024-03-23T13:44:11;6.50;;;1.83;;
13173;SDS011;6652;48.802;9.190;2024-03-23T13:46:38;12.02;;;2.38;;
13173;SDS011;6652;48.802;9.190;2024-03-23T13:49:07;10.55;;;1.70;;
13173;SDS011;6652;48.802;9.190;2024-03-23T13:51:43;10.35;;;2.00;;
13173;SDS011;6652;48.802;9.190;2024-03-23T13:54:13;9.48;;;1.67;;
13173;SDS011;6652;48.802;9.190;2024-03-23T13:56:39;7.25;;;2.05;;
13173;SDS011;6652;48.802;9.190;2024-03-23T13:59:09;8.88;;;1.88;;
13173;SDS011;6652;48.802;9.190;2024-03-23T14:01:37;7.07;;;1.48;;
13173;SDS011;6652;48.802;9.190;2024-03-23T14:04:07;7.35;;;1.90;;
13173;SDS011;6652;48.802;9.190;2024-03-23T14:06:33;6.63;;;1.50;;
13173;SDS011;6652;48.802;9.190;2024-03-23T14:09:00;6.50;;;1.50;;
13173;SDS011;6652;48.802;9.190;2024-03-23T14:11:29;9.25;;;1.25;;
13173;SDS011;6652;48.802;9.190;2024-03-23T14:13:59;5.82;;;1.38;;
13173;SDS011;6652;48.802;9.190;2024-03-23T14:16:25;8.40;;;1.55;;
13173;SDS011;6652;48.802;9.190;2024-03-23T14:18:52;7.95;;;1.27;;
13173;SDS011;6652;48.802;9.190;2024-03-23T14:21:18;12.05;;;2.08;;
13173;SDS011;6652;48.802;9.190;2024-03-23T14:23:45;4.78;;;1.30;;
13173;SDS011;6652;48.802;9.190;2024-03-23T14:26:11;4.68;;;1.00;;
13173;SDS011;6652;48.802;9.190;2024-03-23T14:28:38;6.82;;;1.02;;
13173;SDS011;6652;48.802;9.190;2024-03-23T14:31:07;8.50;;;0.93;;
13173;SDS011;6652;48.802;9.190;2024-03-23T14:33:35;5.25;;;0.85;;
13173;SDS011;6652;48.802;9.190;2024-03-23T14:36:02;12.30;;;1.10;;
13173;SDS011;6652;48.802;9.190;2024-03-23T14:38:30;11.73;;;0.90;;
13173;SDS011;6652;48.802;9.190;2024-03-23T14:40:57;5.32;;;0.60;;
13173;SDS011;6652;48.802;9.190;2024-03-23T14:43:25;9.27;;;1.13;;
13173;SDS011;6652;48.802;9.190;2024-03-23T14:46:09;4.85;;;1.02;;
13173;SDS011;6652;48.802;9.190;2024-03-23T14:48:41;2.05;;;0.73;;
13173;SDS011;6652;48.802;9.190;2024-03-23T14:51:07;4.85;;;1.35;;
13173;SDS011;6652;48.802;9.190;2024-03-23T14:53:35;7.90;;;1.50;;
13173;SDS011;6652;48.802;9.190;2024-03-23T14:56:03;5.50;;;1.27;;
13173;SDS011;6652;48.802;9.190;2024-03-23T14:58:30;9.43;;;1.77;;
13173;SDS011;6652;48.802;9.190;2024-03-23T15:00:59;8.88;;;1.30;;
13173;SDS011;6652;48.802;9.190;2024-03-23T15:06:06;2.72;;;1.20;;
13173;SDS011;6652;48.802;9.190;2024-03-23T15:08:34;8.07;;;1.10;;
13173;SDS011;6652;48.802;9.190;2024-03-23T15:11:00;4.50;;;1.27;;
13173;SDS011;6652;48.802;9.190;2024-03-23T15:13:30;5.80;;;1.70;;
13173;SDS011;6652;48.802;9.190;2024-03-23T15:15:56;5.50;;;1.15;;
13173;SDS011;6652;48.802;9.190;2024-03-23T15:18:29;4.65;;;0.75;;
13173;SDS011;6652;48.802;9.190;2024-03-23T15:20:55;3.95;;;1.30;;
13173;SDS011;6652;48.802;9.190;2024-03-23T15:23:24;5.82;;;0.93;;
13173;SDS011;6652;48.802;9.190;2024-03-23T15:25:56;3.85;;;0.80;;
13173;SDS011;6652;48.802;9.190;2024-03-23T15:28:23;3.90;;;0.77;;
13173;SDS011;6652;48.802;9.190;2024-03-23T15:30:52;6.10;;;0.90;;
13173;SDS011;6652;48.802;9.190;2024-03-23T15:33:19;2.40;;;0.70;;
13173;SDS011;6652;48.802;9.190;2024-03-23T15:35:45;1.80;;;0.60;;
13173;SDS011;6652;48.802;9.190;2024-03-23T15:38:15;4.63;;;1.20;;
13173;SDS011;6652;48.802;9.190;2024-03-23T15:40:42;2.88;;;1.00;;
13173;SDS011;6652;48.802;9.190;2024-03-23T15:43:17;4.57;;;1.13;;
13173;SDS011;6652;48.802;9.190;2024-03-23T15:45:43;3.05;;;0.68;;
13173;SDS011;6652;48.802;9.190;2024-03-23T15:48:10;5.50;;;1.00;;
13173;SDS011;6652;48.802;9.190;2024-03-23T15:50:36;4.65;;;0.85;;
13173;SDS011;6652;48.802;9.190;2024-03-23T15:53:04;2.30;;;0.75;;
13173;SDS011;6652;48.802;9.190;2024-03-23T15:55:33;4.40;;;0.90;;
13173;SDS011;6652;48.802;9.190;2024-03-23T15:58:02;1.63;;;0.70;;